Terminal Aerodrome Forecast
Issued by NWS

Current Version | Previous Version | Text Only | Print | Product List | Glossary On
Versions: 1 2 3 4 5 6 7 8 9 10 11 12 13
000
FTPA31 PHFO 242300
TAFKOA
TAF
PHKO 242338Z 2500/2524 24008KT P6SM FEW030 SCT060
     FM250300 19007KT P6SM FEW030 BKN050
     FM250700 10004KT P6SM FEW050
     FM252000 23008KT P6SM FEW030 SCT060=

USA.gov is the U.S. government's official web portal to all federal, state and local government web resources and services.